createdAt,value
2022-09-14T00:01:24.893Z,99849.72
2022-09-14T00:03:53.899Z,99869.88
2022-09-14T00:06:20.345Z,99875.31
2022-09-14T00:08:49.759Z,99877.00
2022-09-14T00:11:16.335Z,99863.63
2022-09-14T00:13:44.037Z,99847.72
2022-09-14T00:16:12.545Z,99831.31
2022-09-14T00:18:39.067Z,99829.22
2022-09-14T00:21:07.402Z,99840.41
2022-09-14T00:23:37.740Z,99832.25
2022-09-14T00:26:12.854Z,99825.34
2022-09-14T00:28:40.954Z,99811.44
2022-09-14T00:31:07.876Z,99804.75
2022-09-14T00:33:34.862Z,99799.19
2022-09-14T00:36:20.854Z,99783.56
2022-09-14T00:38:47.785Z,99763.16
2022-09-14T00:41:21.504Z,99754.16
2022-09-14T00:43:52.284Z,99734.84
2022-09-14T00:46:18.732Z,99745.38
2022-09-14T00:48:45.276Z,99746.63
2022-09-14T00:51:11.827Z,99748.38
2022-09-14T00:53:38.334Z,99746.94
2022-09-14T00:56:04.867Z,99747.84
2022-09-14T00:58:31.323Z,99747.19
2022-09-14T01:00:58.963Z,99754.06
2022-09-14T01:03:25.491Z,99747.72
2022-09-14T01:06:04.931Z,99748.81
2022-09-14T01:08:40.502Z,99748.97
2022-09-14T01:11:27.066Z,99745.72
2022-09-14T01:14:03.241Z,99742.34
2022-09-14T01:16:37.682Z,99731.47
2022-09-14T01:19:07.336Z,99733.41
2022-09-14T01:21:36.028Z,99730.09
2022-09-14T01:24:16.607Z,99725.31
2022-09-14T01:26:46.145Z,99738.94
2022-09-14T01:29:17.907Z,99749.03
2022-09-14T01:32:00.205Z,99756.06
2022-09-14T01:34:31.653Z,99762.59
2022-09-14T01:37:06.215Z,99770.97
2022-09-14T01:39:34.806Z,99758.72
2022-09-14T01:42:01.925Z,99770.22
2022-09-14T01:44:34.224Z,99758.72
2022-09-14T01:47:08.003Z,99762.34
2022-09-14T01:49:38.154Z,99766.00
2022-09-14T01:52:08.526Z,99757.38
2022-09-14T01:54:39.444Z,99759.63
2022-09-14T01:57:18.249Z,99751.47
2022-09-14T01:59:45.802Z,99743.34
2022-09-14T02:02:16.253Z,99760.56
2022-09-14T02:04:43.444Z,99764.38
2022-09-14T02:07:10.467Z,99767.31
2022-09-14T02:09:37.761Z,99767.97
2022-09-14T02:12:04.866Z,99767.81
2022-09-14T02:14:31.978Z,99769.16
2022-09-14T02:16:58.880Z,99769.03
2022-09-14T02:19:26.787Z,99786.91
2022-09-14T02:21:53.640Z,99786.13
2022-09-14T02:24:20.662Z,99776.84
2022-09-14T02:27:00.995Z,99772.53
2022-09-14T02:29:27.662Z,99766.88
2022-09-14T02:32:14.628Z,99757.69
2022-09-14T02:34:44.128Z,99744.19
2022-09-14T02:37:13.716Z,99739.50
2022-09-14T02:39:50.696Z,99742.25
2022-09-14T02:42:22.795Z,99735.22
2022-09-14T02:45:14.812Z,99725.22
2022-09-14T02:47:50.427Z,99719.03
2022-09-14T02:50:22.462Z,99718.38
2022-09-14T02:52:53.801Z,99710.09
2022-09-14T02:55:21.600Z,99689.78
2022-09-14T02:58:07.761Z,99682.59
2022-09-14T03:00:36.726Z,99677.34
2022-09-14T03:03:04.757Z,99677.03
2022-09-14T03:05:31.448Z,99676.97
2022-09-14T03:07:57.961Z,99690.81
2022-09-14T03:10:24.662Z,99689.25
2022-09-14T03:12:51.178Z,99688.78
2022-09-14T03:15:17.674Z,99677.25
2022-09-14T03:17:47.833Z,99669.13
2022-09-14T03:20:18.124Z,99652.22
2022-09-14T03:22:44.656Z,99640.16
2022-09-14T03:25:11.306Z,99640.22
2022-09-14T03:27:37.789Z,99640.69
2022-09-14T03:30:04.975Z,99648.75
2022-09-14T03:32:32.008Z,99661.81
2022-09-14T03:34:58.571Z,99669.78
2022-09-14T03:37:25.974Z,99675.22
2022-09-14T03:39:52.604Z,99668.66
2022-09-14T03:42:19.140Z,99649.50
2022-09-14T03:44:45.581Z,99644.53
2022-09-14T03:47:12.048Z,99649.94
2022-09-14T03:49:38.596Z,99655.38
2022-09-14T03:52:05.135Z,99653.13
2022-09-14T03:54:31.589Z,99663.06
2022-09-14T03:56:58.018Z,99658.09
2022-09-14T03:59:24.522Z,99666.38
2022-09-14T04:01:51.028Z,99662.66
2022-09-14T04:04:17.596Z,99664.13
2022-09-14T04:06:44.170Z,99669.88
2022-09-14T04:09:10.615Z,99671.00
2022-09-14T04:11:37.165Z,99660.59
2022-09-14T04:14:04.494Z,99651.53
2022-09-14T04:16:31.553Z,99651.53
2022-09-14T04:18:58.266Z,99642.75
2022-09-14T04:21:25.379Z,99648.63
2022-09-14T04:26:39.884Z,99662.94
2022-09-14T04:29:06.306Z,99656.19
2022-09-14T04:31:33.399Z,99655.53
2022-09-14T04:33:59.900Z,99646.72
2022-09-14T04:36:29.271Z,99643.81
2022-09-14T04:38:57.120Z,99649.50
2022-09-14T04:41:24.314Z,99650.09
2022-09-14T04:43:51.522Z,99637.44
2022-09-14T04:46:19.475Z,99629.81
2022-09-14T04:48:46.266Z,99635.22
2022-09-14T04:51:16.595Z,99642.72
2022-09-14T04:53:43.749Z,99638.41
2022-09-14T04:56:11.514Z,99641.59
2022-09-14T04:58:42.370Z,99655.63
2022-09-14T05:01:10.371Z,99662.66
2022-09-14T05:03:40.486Z,99671.28
2022-09-14T05:06:10.641Z,99671.28
2022-09-14T05:08:38.609Z,99661.88
2022-09-14T05:11:06.762Z,99659.22
2022-09-14T05:13:33.867Z,99667.09
2022-09-14T05:16:10.831Z,99666.50
2022-09-14T05:18:37.862Z,99667.50
2022-09-14T05:21:08.372Z,99662.13
2022-09-14T05:23:35.481Z,99662.66
2022-09-14T05:26:02.383Z,99659.19
2022-09-14T05:28:28.854Z,99652.56
2022-09-14T05:30:55.562Z,99656.41
2022-09-14T05:33:22.408Z,99656.41
2022-09-14T05:35:49.532Z,99659.59
2022-09-14T05:38:16.040Z,99668.03
2022-09-14T05:40:42.409Z,99671.75
2022-09-14T05:43:08.922Z,99667.72
2022-09-14T05:45:35.526Z,99671.22
2022-09-14T05:48:04.731Z,99653.50
2022-09-14T05:50:32.289Z,99659.44
2022-09-14T05:52:58.850Z,99655.31
2022-09-14T05:55:25.300Z,99646.88
2022-09-14T05:57:51.817Z,99631.53
2022-09-14T06:00:18.795Z,99627.63
2022-09-14T06:02:53.048Z,99620.88
2022-09-14T06:05:20.381Z,99630.91
2022-09-14T06:07:50.724Z,99632.78
2022-09-14T06:10:17.132Z,99645.50
2022-09-14T06:12:43.563Z,99630.97
2022-09-14T06:15:10.905Z,99640.63
2022-09-14T06:17:37.892Z,99652.88
2022-09-14T06:20:05.557Z,99656.09
2022-09-14T06:22:32.329Z,99656.09
2022-09-14T06:24:58.770Z,99666.91
2022-09-14T06:27:25.289Z,99660.50
2022-09-14T06:29:53.745Z,99663.88
2022-09-14T06:32:21.088Z,99668.16
2022-09-14T06:34:47.492Z,99667.44
2022-09-14T06:37:14.014Z,99665.47
2022-09-14T06:39:40.767Z,99659.34
2022-09-14T06:42:07.267Z,99654.31
2022-09-14T06:44:38.400Z,99647.56
2022-09-14T06:47:04.888Z,99648.81
2022-09-14T06:49:31.366Z,99651.13
2022-09-14T06:51:57.916Z,99645.09
2022-09-14T06:54:25.380Z,99645.00
2022-09-14T06:56:52.135Z,99644.34
2022-09-14T06:59:18.992Z,99650.56
2022-09-14T07:01:46.167Z,99646.41
2022-09-14T07:04:12.927Z,99635.31
2022-09-14T07:06:41.419Z,99636.34
2022-09-14T07:09:08.287Z,99634.19
2022-09-14T07:11:34.852Z,99639.75
2022-09-14T07:14:02.174Z,99640.91
2022-09-14T07:16:30.233Z,99648.50
2022-09-14T07:18:57.632Z,99633.66
2022-09-14T07:21:24.642Z,99636.34
2022-09-14T07:23:51.445Z,99645.06
2022-09-14T07:26:19.442Z,99646.78
2022-09-14T07:28:47.339Z,99643.75
2022-09-14T07:31:17.109Z,99623.31
2022-09-14T07:33:43.587Z,99620.59
2022-09-14T07:36:11.074Z,99644.22
2022-09-14T07:38:53.584Z,99646.22
2022-09-14T07:41:24.508Z,99654.72
2022-09-14T07:43:51.779Z,99649.63
2022-09-14T07:46:18.914Z,99651.81
2022-09-14T07:48:45.420Z,99646.59
2022-09-14T07:51:12.201Z,99651.97
2022-09-14T07:53:40.336Z,99662.44
2022-09-14T07:56:10.396Z,99667.41
2022-09-14T07:58:37.084Z,99668.28
2022-09-14T08:01:12.199Z,99674.19
2022-09-14T08:03:42.484Z,99674.41
2022-09-14T08:06:10.868Z,99676.66
2022-09-14T08:08:38.449Z,99668.97
2022-09-14T08:11:12.592Z,99678.25
2022-09-14T08:13:40.307Z,99690.72
2022-09-14T08:16:06.837Z,99682.97
2022-09-14T08:18:33.775Z,99684.72
2022-09-14T08:21:04.514Z,99699.25
2022-09-14T08:23:30.918Z,99702.06
2022-09-14T08:26:01.686Z,99701.38
2022-09-14T08:28:28.127Z,99708.38
2022-09-14T08:30:54.583Z,99722.31
2022-09-14T08:33:20.995Z,99715.69
2022-09-14T08:35:57.856Z,99718.78
2022-09-14T08:38:24.886Z,99717.91
2022-09-14T08:40:51.537Z,99725.19
2022-09-14T08:43:19.665Z,99723.28
2022-09-14T08:45:47.878Z,99736.25
2022-09-14T08:48:25.384Z,99736.47
2022-09-14T08:50:54.765Z,99737.41
2022-09-14T08:53:21.988Z,99735.06
2022-09-14T08:55:48.350Z,99724.53
2022-09-14T08:58:25.024Z,99719.91
2022-09-14T09:01:01.780Z,99729.59
2022-09-14T09:03:41.155Z,99718.09
2022-09-14T09:06:07.647Z,99727.50
2022-09-14T09:08:41.714Z,99726.88
2022-09-14T09:11:13.168Z,99727.63
2022-09-14T09:13:40.145Z,99737.94
2022-09-14T09:16:09.181Z,99737.44
2022-09-14T09:18:39.669Z,99733.16
2022-09-14T09:21:29.480Z,99729.97
2022-09-14T09:24:00.123Z,99734.28
2022-09-14T09:26:30.979Z,99734.16
2022-09-14T09:28:59.433Z,99726.38
2022-09-14T09:31:39.764Z,99720.50
2022-09-14T09:34:36.374Z,99718.03
2022-09-14T09:37:23.004Z,99695.81
2022-09-14T09:39:50.248Z,99697.84
2022-09-14T09:42:24.349Z,99702.53
2022-09-14T09:45:03.633Z,99686.00
2022-09-14T09:47:35.448Z,99670.34
2022-09-14T09:50:04.688Z,99665.16
2022-09-14T09:52:33.160Z,99650.13
2022-09-14T09:55:00.383Z,99644.75
2022-09-14T09:57:31.844Z,99650.38
2022-09-14T10:00:18.566Z,99650.56
2022-09-14T10:02:45.053Z,99652.84
2022-09-14T10:05:11.995Z,99657.41
2022-09-14T10:07:50.630Z,99656.19
2022-09-14T10:10:18.613Z,99652.03
2022-09-14T10:12:49.782Z,99634.69
2022-09-14T10:15:32.961Z,99623.00
2022-09-14T10:18:15.332Z,99615.28
2022-09-14T10:20:43.224Z,99616.84
2022-09-14T10:23:18.872Z,99598.44
2022-09-14T10:25:45.987Z,99592.16
2022-09-14T10:28:32.067Z,99587.16
2022-09-14T10:31:01.636Z,99592.88
2022-09-14T10:33:29.575Z,99576.38
2022-09-14T10:36:02.092Z,99584.91
2022-09-14T10:38:32.213Z,99585.41
2022-09-14T10:41:06.432Z,99562.41
2022-09-14T10:43:35.844Z,99552.56
2022-09-14T10:46:04.526Z,99549.53
2022-09-14T10:48:44.402Z,99535.47
2022-09-14T10:51:23.341Z,99535.44
2022-09-14T10:54:03.305Z,99513.66
2022-09-14T10:56:48.523Z,99514.59
2022-09-14T10:59:47.548Z,99518.09
2022-09-14T11:02:26.851Z,99520.25
2022-09-14T11:04:53.872Z,99508.00
2022-09-14T11:07:38.019Z,99492.53
2022-09-14T11:10:15.205Z,99491.88
2022-09-14T11:13:00.467Z,99496.47
2022-09-14T11:16:02.496Z,99499.38
2022-09-14T11:18:38.213Z,99498.16
2022-09-14T11:21:19.853Z,99505.84
2022-09-14T11:23:56.963Z,99498.97
2022-09-14T11:26:39.196Z,99494.03
2022-09-14T11:32:19.320Z,99478.66
2022-09-14T11:34:58.966Z,99483.91
2022-09-14T11:37:31.249Z,99491.53
2022-09-14T11:40:09.829Z,99487.44
2022-09-14T11:42:49.182Z,99499.53
2022-09-14T11:45:22.549Z,99506.47
2022-09-14T11:47:57.814Z,99503.78
2022-09-14T11:50:27.315Z,99500.47
2022-09-14T11:53:03.719Z,99503.03
2022-09-14T11:55:30.727Z,99503.50
2022-09-14T11:57:58.919Z,99500.03
2022-09-14T12:00:25.372Z,99494.13
2022-09-14T12:02:57.887Z,99487.88
2022-09-14T12:05:29.832Z,99481.59
2022-09-14T12:08:04.605Z,99473.78
2022-09-14T12:10:31.310Z,99467.53
2022-09-14T12:12:58.871Z,99474.22
2022-09-14T12:15:25.358Z,99484.84
2022-09-14T12:17:53.395Z,99486.34
2022-09-14T12:20:29.908Z,99491.78
2022-09-14T12:23:05.655Z,99495.66
2022-09-14T12:25:32.418Z,99510.06
2022-09-14T12:27:58.992Z,99513.88
2022-09-14T12:30:39.925Z,99512.53
2022-09-14T12:33:27.421Z,99519.84
2022-09-14T12:35:53.867Z,99528.19
2022-09-14T12:38:29.497Z,99532.56
2022-09-14T12:41:19.071Z,99534.84
2022-09-14T12:43:46.199Z,99536.38
2022-09-14T12:46:13.362Z,99525.00
2022-09-14T12:48:46.445Z,99526.22
2022-09-14T12:51:19.084Z,99522.31
2022-09-14T12:53:48.133Z,99515.25
2022-09-14T12:56:17.977Z,99516.00
2022-09-14T12:58:55.965Z,99510.38
2022-09-14T13:01:27.965Z,99512.25
2022-09-14T13:03:55.944Z,99496.97
2022-09-14T13:06:33.082Z,99491.97
2022-09-14T13:08:59.840Z,99483.75
2022-09-14T13:11:30.722Z,99480.66
2022-09-14T13:13:57.935Z,99481.50
2022-09-14T13:16:32.461Z,99470.72
2022-09-14T13:19:04.889Z,99481.91
2022-09-14T13:21:31.439Z,99471.00
2022-09-14T13:23:57.979Z,99469.47
2022-09-14T13:26:27.775Z,99470.22
2022-09-14T13:28:55.224Z,99470.19
2022-09-14T13:31:30.248Z,99466.31
2022-09-14T13:33:57.481Z,99462.00
2022-09-14T13:36:26.188Z,99467.44
2022-09-14T13:38:53.542Z,99458.00
2022-09-14T13:41:22.873Z,99461.00
2022-09-14T13:43:52.309Z,99463.72
2022-09-14T13:46:20.540Z,99466.47
2022-09-14T13:48:47.418Z,99466.88
2022-09-14T13:51:14.728Z,99467.56
2022-09-14T13:53:48.526Z,99477.34
2022-09-14T13:56:44.594Z,99484.66
2022-09-14T13:59:21.502Z,99494.44
2022-09-14T14:02:00.838Z,99492.91
2022-09-14T14:04:48.155Z,99497.31
2022-09-14T14:07:31.321Z,99504.91
2022-09-14T14:09:59.017Z,99502.09
2022-09-14T14:12:25.598Z,99488.31
2022-09-14T14:14:53.240Z,99481.19
2022-09-14T14:17:32.867Z,99481.34
2022-09-14T14:20:00.501Z,99486.69
2022-09-14T14:22:33.705Z,99489.84
2022-09-14T14:25:16.264Z,99479.25
2022-09-14T14:27:44.449Z,99478.41
2022-09-14T14:30:15.748Z,99476.38
2022-09-14T14:32:42.457Z,99482.88
2022-09-14T14:35:16.039Z,99471.13
2022-09-14T14:37:42.517Z,99466.41
2022-09-14T14:40:12.205Z,99463.97
2022-09-14T14:42:39.111Z,99458.34
2022-09-14T14:45:06.253Z,99462.50
2022-09-14T14:47:33.417Z,99462.50
2022-09-14T14:49:59.966Z,99455.06
2022-09-14T14:52:26.400Z,99446.09
2022-09-14T14:54:52.853Z,99439.00
2022-09-14T14:57:19.649Z,99435.50
2022-09-14T14:59:46.962Z,99439.19
2022-09-14T15:02:13.423Z,99428.94
2022-09-14T15:04:39.855Z,99443.47
2022-09-14T15:07:06.439Z,99450.06
2022-09-14T15:09:32.927Z,99446.78
2022-09-14T15:12:00.948Z,99440.66
2022-09-14T15:14:27.870Z,99429.25
2022-09-14T15:16:57.846Z,99419.19
2022-09-14T15:19:24.658Z,99425.50
2022-09-14T15:21:51.096Z,99418.53
2022-09-14T15:24:17.577Z,99405.84
2022-09-14T15:26:44.062Z,99407.94
2022-09-14T15:29:13.333Z,99405.91
2022-09-14T15:31:40.460Z,99400.09
2022-09-14T15:34:07.000Z,99401.56
2022-09-14T15:36:36.561Z,99406.66
2022-09-14T15:39:03.604Z,99421.81
2022-09-14T15:41:30.056Z,99398.41
2022-09-14T15:43:56.678Z,99399.84
2022-09-14T15:46:23.170Z,99398.91
2022-09-14T15:48:49.768Z,99405.72
2022-09-14T15:51:17.268Z,99414.41
2022-09-14T15:53:45.674Z,99399.13
2022-09-14T15:56:13.350Z,99399.91
2022-09-14T15:58:40.696Z,99398.84
2022-09-14T16:01:09.274Z,99389.78
2022-09-14T16:03:35.920Z,99400.66
2022-09-14T16:06:02.454Z,99393.09
2022-09-14T16:08:29.551Z,99407.28
2022-09-14T16:10:59.833Z,99426.81
2022-09-14T16:13:26.545Z,99426.69
2022-09-14T16:16:02.262Z,99434.88
2022-09-14T16:18:28.932Z,99441.41
2022-09-14T16:20:55.435Z,99447.94
2022-09-14T16:23:21.985Z,99467.16
2022-09-14T16:25:48.735Z,99465.91
2022-09-14T16:28:15.305Z,99464.03
2022-09-14T16:30:41.800Z,99481.13
2022-09-14T16:33:08.245Z,99489.72
2022-09-14T16:35:34.779Z,99485.88
2022-09-14T16:38:01.262Z,99482.13
2022-09-14T16:40:27.867Z,99488.38
2022-09-14T16:42:54.370Z,99483.72
2022-09-14T16:45:20.938Z,99484.00
2022-09-14T16:47:47.718Z,99490.47
2022-09-14T16:50:14.505Z,99499.78
2022-09-14T16:52:40.980Z,99493.75
2022-09-14T16:55:07.746Z,99478.69
2022-09-14T16:57:34.245Z,99474.97
2022-09-14T17:00:00.929Z,99469.50
2022-09-14T17:02:27.529Z,99479.38
2022-09-14T17:04:54.101Z,99475.53
2022-09-14T17:07:22.311Z,99463.44
2022-09-14T17:09:48.919Z,99456.63
2022-09-14T17:12:15.391Z,99455.41
2022-09-14T17:14:42.245Z,99464.16
2022-09-14T17:17:08.705Z,99461.28
2022-09-14T17:19:35.186Z,99459.97
2022-09-14T17:22:04.012Z,99461.31
2022-09-14T17:24:30.675Z,99473.09
2022-09-14T17:26:57.353Z,99481.91
2022-09-14T17:29:24.042Z,99490.28
2022-09-14T17:31:50.773Z,99486.19
2022-09-14T17:34:18.147Z,99484.59
2022-09-14T17:36:45.462Z,99482.94
2022-09-14T17:39:12.704Z,99478.78
2022-09-14T17:41:39.829Z,99463.22
2022-09-14T17:44:07.211Z,99470.19
2022-09-14T17:46:34.621Z,99479.88
2022-09-14T17:49:04.679Z,99489.16
2022-09-14T17:51:32.164Z,99490.22
2022-09-14T17:54:01.019Z,99493.56
2022-09-14T17:56:28.583Z,99498.75
2022-09-14T17:59:05.973Z,99527.69
2022-09-14T18:01:33.392Z,99529.78
2022-09-14T18:04:03.868Z,99517.00
2022-09-14T18:06:32.709Z,99516.50
2022-09-14T18:09:00.856Z,99518.72
2022-09-14T18:11:28.272Z,99524.19
2022-09-14T18:13:56.121Z,99531.19
2022-09-14T18:16:23.416Z,99527.34
2022-09-14T18:18:50.260Z,99535.94
2022-09-14T18:21:18.526Z,99530.91
2022-09-14T18:23:49.551Z,99522.72
2022-09-14T18:26:16.618Z,99514.09
2022-09-14T18:28:44.455Z,99535.88
2022-09-14T18:31:12.466Z,99538.94
2022-09-14T18:33:39.389Z,99542.84
2022-09-14T18:36:06.424Z,99547.84
2022-09-14T18:38:33.375Z,99544.31
2022-09-14T18:41:04.514Z,99548.97
2022-09-14T18:43:31.668Z,99554.72
2022-09-14T18:45:58.650Z,99553.63
2022-09-14T18:48:25.274Z,99550.66
2022-09-14T18:50:51.824Z,99564.72
2022-09-14T18:53:18.359Z,99570.69
2022-09-14T18:55:44.863Z,99571.50
2022-09-14T18:58:11.411Z,99582.63
2022-09-14T19:00:45.157Z,99568.56
2022-09-14T19:03:12.289Z,99582.03
2022-09-14T19:05:39.958Z,99566.47
2022-09-14T19:08:07.671Z,99573.16
2022-09-14T19:10:38.048Z,99561.38
2022-09-14T19:13:04.950Z,99554.97
2022-09-14T19:15:32.867Z,99553.69
2022-09-14T19:17:59.561Z,99546.22
2022-09-14T19:20:38.133Z,99562.25
2022-09-14T19:23:12.796Z,99562.25
2022-09-14T19:25:39.860Z,99553.16
2022-09-14T19:28:07.260Z,99556.44
2022-09-14T19:30:36.225Z,99558.91
2022-09-14T19:33:03.040Z,99558.13
2022-09-14T19:35:29.944Z,99558.91
2022-09-14T19:37:57.283Z,99567.06
2022-09-14T19:40:24.568Z,99571.38
2022-09-14T19:42:51.727Z,99574.72
2022-09-14T19:45:18.519Z,99574.03
2022-09-14T19:47:45.397Z,99575.53
2022-09-14T19:50:12.092Z,99578.69
2022-09-14T19:52:38.618Z,99581.53
2022-09-14T19:55:05.447Z,99571.91
2022-09-14T19:57:32.366Z,99580.88
2022-09-14T19:59:59.043Z,99572.28
2022-09-14T20:02:25.698Z,99568.88
2022-09-14T20:04:52.361Z,99562.31
2022-09-14T20:07:19.227Z,99576.38
2022-09-14T20:09:48.285Z,99582.03
2022-09-14T20:12:14.911Z,99584.97
2022-09-14T20:14:41.489Z,99587.22
2022-09-14T20:17:08.242Z,99592.00
2022-09-14T20:19:36.446Z,99599.91
2022-09-14T20:22:03.297Z,99593.34
2022-09-14T20:24:31.644Z,99601.50
2022-09-14T20:26:59.628Z,99600.25
2022-09-14T20:29:29.388Z,99595.19
2022-09-14T20:31:56.203Z,99602.19
2022-09-14T20:34:23.228Z,99605.81
2022-09-14T20:36:50.743Z,99598.78
2022-09-14T20:39:17.857Z,99599.91
2022-09-14T20:41:45.176Z,99610.09
2022-09-14T20:44:12.115Z,99612.16
2022-09-14T20:46:43.130Z,99609.22
2022-09-14T20:49:14.175Z,99591.09
2022-09-14T20:51:41.658Z,99591.53
2022-09-14T20:54:10.052Z,99592.00
2022-09-14T20:56:37.013Z,99588.16
2022-09-14T20:59:05.754Z,99593.13
2022-09-14T21:01:33.007Z,99597.88
2022-09-14T21:04:07.063Z,99594.81
2022-09-14T21:06:35.425Z,99592.00
2022-09-14T21:09:02.398Z,99590.84
2022-09-14T21:11:28.948Z,99595.38
2022-09-14T21:13:56.763Z,99593.81
2022-09-14T21:16:24.929Z,99581.78
2022-09-14T21:18:54.161Z,99579.63
2022-09-14T21:21:20.945Z,99575.66
2022-09-14T21:23:48.660Z,99587.19
2022-09-14T21:26:15.129Z,99572.03
2022-09-14T21:28:41.904Z,99576.31
2022-09-14T21:31:10.248Z,99591.50
2022-09-14T21:33:38.260Z,99588.22
2022-09-14T21:36:09.101Z,99598.31
2022-09-14T21:38:36.219Z,99592.97
2022-09-14T21:41:03.076Z,99584.94
2022-09-14T21:43:29.689Z,99590.59
2022-09-14T21:45:59.652Z,99589.25
2022-09-14T21:48:26.486Z,99576.78
2022-09-14T21:51:07.350Z,99585.06
2022-09-14T21:53:34.174Z,99592.88
2022-09-14T21:56:04.701Z,99594.88
2022-09-14T21:58:31.263Z,99594.44
2022-09-14T22:00:58.830Z,99587.88
2022-09-14T22:03:25.548Z,99592.53
2022-09-14T22:05:56.845Z,99584.72
2022-09-14T22:08:23.462Z,99593.06
2022-09-14T22:10:50.080Z,99578.59
2022-09-14T22:13:16.724Z,99574.97
2022-09-14T22:15:43.484Z,99574.06
2022-09-14T22:18:10.053Z,99566.63
2022-09-14T22:20:36.587Z,99568.19
2022-09-14T22:23:03.153Z,99570.22
2022-09-14T22:25:30.257Z,99568.09
2022-09-14T22:27:56.862Z,99570.25
2022-09-14T22:30:23.331Z,99564.56
2022-09-14T22:32:49.811Z,99557.66
2022-09-14T22:35:16.388Z,99563.22
2022-09-14T22:37:43.401Z,99572.06
2022-09-14T22:40:10.478Z,99570.94
2022-09-14T22:42:37.205Z,99572.16
2022-09-14T22:45:03.788Z,99578.75
2022-09-14T22:47:30.381Z,99580.31
2022-09-14T22:49:56.996Z,99580.78
2022-09-14T22:52:23.882Z,99595.84
2022-09-14T22:54:50.396Z,99598.78
2022-09-14T22:57:16.841Z,99602.16
2022-09-14T22:59:43.290Z,99601.59
2022-09-14T23:02:09.845Z,99598.09
2022-09-14T23:04:36.466Z,99602.16
2022-09-14T23:07:04.204Z,99599.88
2022-09-14T23:09:30.731Z,99600.16
2022-09-14T23:11:57.180Z,99603.88
2022-09-14T23:14:24.143Z,99597.44
2022-09-14T23:16:50.659Z,99594.94
2022-09-14T23:19:18.014Z,99597.19
2022-09-14T23:21:45.015Z,99600.81
2022-09-14T23:24:11.483Z,99598.88
2022-09-14T23:26:38.043Z,99595.56
2022-09-14T23:29:06.765Z,99597.69
2022-09-14T23:31:33.701Z,99595.38
2022-09-14T23:34:01.840Z,99598.00
2022-09-14T23:36:28.906Z,99592.56
2022-09-14T23:38:55.415Z,99602.09
2022-09-14T23:41:22.740Z,99593.25
2022-09-14T23:43:49.498Z,99595.97
2022-09-14T23:46:16.484Z,99587.38
2022-09-14T23:48:43.479Z,99594.41
2022-09-14T23:51:10.732Z,99584.19
2022-09-14T23:53:37.924Z,99583.63
2022-09-14T23:56:04.734Z,99579.94
2022-09-14T23:58:31.366Z,99583.56
